createdAt,value
2022-08-05T00:00:20.009Z,7.30
2022-08-05T00:02:50.570Z,7.80
2022-08-05T00:06:02.040Z,7.95
2022-08-05T00:08:32.901Z,7.60
2022-08-05T00:10:53.614Z,7.25
2022-08-05T00:13:20.635Z,6.90
2022-08-05T00:16:08.618Z,8.10
2022-08-05T00:18:37.921Z,7.70
2022-08-05T00:21:06.769Z,7.80
2022-08-05T00:23:45.813Z,8.43
2022-08-05T00:26:16.326Z,7.53
2022-08-05T00:28:44.005Z,7.97
2022-08-05T00:31:13.319Z,8.20
2022-08-05T00:34:54.216Z,8.40
2022-08-05T00:37:11.209Z,8.02
2022-08-05T00:39:14.485Z,7.47
2022-08-05T00:41:51.838Z,8.52
2022-08-05T00:44:23.335Z,7.82
2022-08-05T00:47:01.622Z,7.77
2022-08-05T00:49:44.405Z,7.72
2022-08-05T00:52:18.328Z,8.35
2022-08-05T00:54:56.143Z,7.80
2022-08-05T00:57:25.192Z,7.53
2022-08-05T00:59:52.636Z,7.43
2022-08-05T01:02:19.656Z,6.32
2022-08-05T01:04:51.269Z,7.15
2022-08-05T01:07:18.183Z,7.68
2022-08-05T01:09:45.331Z,7.15
2022-08-05T01:12:25.047Z,7.57
2022-08-05T01:15:35.379Z,7.05
2022-08-05T01:18:09.840Z,7.60
2022-08-05T01:21:37.862Z,7.07
2022-08-05T01:24:22.981Z,7.10
2022-08-05T01:27:19.497Z,7.30
2022-08-05T01:29:52.633Z,7.07
2022-08-05T01:32:24.838Z,7.95
2022-08-05T01:35:10.737Z,8.00
2022-08-05T01:37:46.206Z,7.60
2022-08-05T01:40:17.968Z,7.93
2022-08-05T01:42:46.779Z,7.85
2022-08-05T01:45:16.586Z,8.68
2022-08-05T01:47:46.640Z,9.05
2022-08-05T01:50:29.836Z,8.88
2022-08-05T01:53:01.563Z,8.10
2022-08-05T01:55:32.731Z,8.63
2022-08-05T01:58:12.557Z,8.80
2022-08-05T02:00:49.249Z,7.70
2022-08-05T02:03:32.149Z,8.68
2022-08-05T02:06:24.031Z,7.47
2022-08-05T02:08:58.033Z,8.07
2022-08-05T02:11:33.200Z,8.50
2022-08-05T02:14:17.607Z,8.52
2022-08-05T02:16:53.227Z,8.15
2022-08-05T02:19:34.262Z,8.50
2022-08-05T02:22:17.555Z,8.05
2022-08-05T02:25:00.928Z,8.65
2022-08-05T02:27:58.213Z,9.02
2022-08-05T02:30:17.942Z,8.90
2022-08-05T02:32:52.765Z,8.50
2022-08-05T02:35:28.095Z,8.57
2022-08-05T02:38:02.320Z,8.57
2022-08-05T02:40:31.012Z,8.35
2022-08-05T02:42:59.969Z,8.00
2022-08-05T02:45:28.990Z,8.20
2022-08-05T02:48:17.450Z,8.13
2022-08-05T02:50:47.078Z,9.02
2022-08-05T02:53:18.963Z,8.40
2022-08-05T02:55:59.667Z,8.25
2022-08-05T02:58:27.567Z,7.60
2022-08-05T03:01:01.743Z,8.57
2022-08-05T03:03:34.219Z,8.48
2022-08-05T03:06:56.160Z,8.43
2022-08-05T03:09:05.508Z,8.65
2022-08-05T03:11:55.693Z,8.77
2022-08-05T03:14:21.854Z,8.10
2022-08-05T03:16:49.554Z,8.20
2022-08-05T03:19:34.413Z,8.65
2022-08-05T03:22:04.979Z,9.10
2022-08-05T03:24:32.589Z,7.60
2022-08-05T03:27:01.024Z,7.10
2022-08-05T03:29:45.357Z,8.20
2022-08-05T03:32:16.053Z,8.25
2022-08-05T03:34:47.238Z,7.63
2022-08-05T03:37:18.654Z,8.30
2022-08-05T03:40:01.254Z,7.10
2022-08-05T03:42:32.227Z,8.90
2022-08-05T03:45:01.886Z,8.10
2022-08-05T03:47:47.896Z,7.28
2022-08-05T03:50:16.290Z,7.67
2022-08-05T03:55:00.535Z,7.85
2022-08-05T03:56:44.473Z,7.40
2022-08-05T03:59:24.661Z,6.93
2022-08-05T04:01:53.659Z,7.30
2022-08-05T04:04:27.508Z,7.60
2022-08-05T04:06:56.051Z,6.53
2022-08-05T04:09:26.156Z,6.82
2022-08-05T04:11:56.833Z,6.40
2022-08-05T04:14:29.836Z,6.70
2022-08-05T04:17:00.071Z,6.37
2022-08-05T04:19:29.065Z,7.00
2022-08-05T04:22:10.039Z,6.78
2022-08-05T04:24:52.298Z,6.25
2022-08-05T04:27:41.814Z,6.75
2022-08-05T04:30:09.271Z,6.20
2022-08-05T04:32:36.445Z,6.88
2022-08-05T04:35:04.852Z,6.35
2022-08-05T04:38:01.668Z,6.60
2022-08-05T04:40:20.089Z,6.50
2022-08-05T04:42:47.006Z,5.87
2022-08-05T04:45:31.365Z,6.10
2022-08-05T04:48:10.283Z,6.07
2022-08-05T04:51:01.606Z,5.18
2022-08-05T04:53:33.706Z,4.82
2022-08-05T04:56:15.290Z,5.37
2022-08-05T04:58:50.037Z,5.55
2022-08-05T05:02:06.425Z,5.80
2022-08-05T05:04:04.692Z,6.05
2022-08-05T05:06:39.071Z,6.00
2022-08-05T05:09:14.094Z,5.87
2022-08-05T05:11:55.642Z,5.80
2022-08-05T05:14:31.718Z,6.20
2022-08-05T05:17:03.262Z,6.10
2022-08-05T05:19:37.110Z,6.20
2022-08-05T05:22:23.818Z,6.10
2022-08-05T05:24:57.713Z,6.60
2022-08-05T05:27:44.375Z,6.30
2022-08-05T05:30:29.751Z,5.80
2022-08-05T05:33:03.909Z,6.10
2022-08-05T05:35:42.539Z,5.63
2022-08-05T05:38:12.819Z,6.75
2022-08-05T05:40:49.911Z,6.68
2022-08-05T05:43:22.115Z,5.93
2022-08-05T05:46:15.793Z,6.90
2022-08-05T05:48:44.015Z,6.50
2022-08-05T05:51:15.168Z,7.32
2022-08-05T05:53:54.362Z,7.03
2022-08-05T05:56:34.461Z,7.40
2022-08-05T05:59:06.773Z,7.00
2022-08-05T06:01:38.219Z,7.70
2022-08-05T06:04:11.374Z,7.32
2022-08-05T06:06:41.767Z,7.43
2022-08-05T06:09:09.546Z,7.18
2022-08-05T06:12:01.014Z,7.57
2022-08-05T06:14:33.434Z,7.57
2022-08-05T06:17:22.253Z,7.10
2022-08-05T06:19:57.220Z,8.30
2022-08-05T06:22:33.518Z,7.82
2022-08-05T06:25:59.121Z,7.20
2022-08-05T06:28:10.964Z,7.33
2022-08-05T06:30:36.358Z,7.53
2022-08-05T06:33:03.363Z,7.00
2022-08-05T06:36:07.620Z,7.00
2022-08-05T06:38:17.944Z,6.88
2022-08-05T06:41:03.283Z,6.53
2022-08-05T06:43:58.694Z,7.43
2022-08-05T06:46:18.054Z,7.38
2022-08-05T06:48:55.379Z,6.60
2022-08-05T06:51:30.217Z,6.40
2022-08-05T06:53:59.907Z,6.87
2022-08-05T06:56:28.127Z,6.15
2022-08-05T06:58:55.697Z,6.80
2022-08-05T07:01:23.174Z,6.90
2022-08-05T07:03:54.838Z,6.55
2022-08-05T07:06:21.810Z,6.97
2022-08-05T07:08:54.667Z,6.38
2022-08-05T07:11:22.675Z,6.43
2022-08-05T07:13:59.575Z,6.35
2022-08-05T07:17:57.244Z,6.70
2022-08-05T07:19:38.902Z,6.80
2022-08-05T07:22:08.083Z,6.22
2022-08-05T07:24:44.062Z,6.80
2022-08-05T07:27:19.641Z,7.00
2022-08-05T07:30:24.646Z,6.50
2022-08-05T07:32:38.925Z,6.43
2022-08-05T07:36:03.729Z,6.30
2022-08-05T07:37:57.226Z,6.25
2022-08-05T07:40:31.458Z,5.93
2022-08-05T07:42:59.696Z,6.10
2022-08-05T07:45:56.481Z,5.93
2022-08-05T07:49:00.667Z,5.43
2022-08-05T07:51:08.701Z,5.30
2022-08-05T07:53:51.251Z,5.85
2022-08-05T07:57:00.202Z,5.70
2022-08-05T07:59:08.535Z,5.10
2022-08-05T08:01:41.615Z,5.20
2022-08-05T08:04:34.358Z,5.20
2022-08-05T08:07:05.475Z,4.63
2022-08-05T08:09:34.251Z,4.88
2022-08-05T08:12:09.071Z,4.73
2022-08-05T08:14:46.663Z,5.32
2022-08-05T08:17:16.114Z,4.97
2022-08-05T08:20:23.515Z,4.97
2022-08-05T08:22:35.691Z,5.13
2022-08-05T08:25:03.995Z,4.67
2022-08-05T08:27:47.962Z,4.95
2022-08-05T08:30:32.787Z,4.82
2022-08-05T08:33:13.788Z,4.32
2022-08-05T08:35:53.126Z,4.85
2022-08-05T08:38:35.189Z,4.80
2022-08-05T08:41:13.989Z,5.30
2022-08-05T08:45:18.901Z,5.77
2022-08-05T08:46:31.780Z,5.03
2022-08-05T08:49:17.471Z,4.30
2022-08-05T08:52:03.798Z,4.65
2022-08-05T08:54:37.227Z,5.63
2022-08-05T08:57:11.337Z,5.57
2022-08-05T08:59:41.793Z,5.18
2022-08-05T09:02:16.775Z,5.18
2022-08-05T09:04:58.421Z,5.20
2022-08-05T09:07:39.512Z,5.05
2022-08-05T09:10:20.721Z,5.10
2022-08-05T09:12:55.066Z,5.47
2022-08-05T09:15:23.420Z,5.30
2022-08-05T09:17:53.077Z,5.22
2022-08-05T09:20:20.792Z,4.93
2022-08-05T09:23:09.734Z,5.80
2022-08-05T09:26:01.503Z,6.50
2022-08-05T09:28:33.373Z,5.50
2022-08-05T09:32:38.569Z,6.00
2022-08-05T09:34:01.604Z,5.38
2022-08-05T09:36:55.083Z,5.63
2022-08-05T09:39:41.131Z,6.20
2022-08-05T09:42:20.201Z,6.32
2022-08-05T09:44:56.310Z,5.88
2022-08-05T09:47:46.530Z,6.10
2022-08-05T09:50:38.951Z,6.37
2022-08-05T09:53:06.255Z,6.60
2022-08-05T09:55:57.458Z,6.15
2022-08-05T09:58:23.907Z,6.10
2022-08-05T10:00:53.827Z,7.13
2022-08-05T10:03:21.507Z,6.97
2022-08-05T10:06:05.971Z,7.05
2022-08-05T10:08:42.511Z,6.68
2022-08-05T10:11:18.772Z,6.80
2022-08-05T10:13:48.247Z,5.97
2022-08-05T10:16:32.210Z,6.10
2022-08-05T10:19:01.747Z,6.32
2022-08-05T10:21:40.240Z,6.20
2022-08-05T10:24:11.244Z,6.05
2022-08-05T10:26:51.358Z,6.25
2022-08-05T10:29:23.913Z,5.50
2022-08-05T10:32:54.223Z,6.10
2022-08-05T10:34:55.259Z,6.15
2022-08-05T10:37:22.648Z,6.50
2022-08-05T10:40:04.119Z,5.45
2022-08-05T10:42:45.369Z,6.30
2022-08-05T10:45:23.407Z,6.00
2022-08-05T10:48:31.924Z,6.35
2022-08-05T10:51:22.475Z,6.00
2022-08-05T10:54:01.721Z,5.95
2022-08-05T10:56:49.318Z,6.03
2022-08-05T11:00:03.391Z,6.07
2022-08-05T11:02:37.678Z,5.95
2022-08-05T11:05:09.453Z,5.63
2022-08-05T11:08:01.210Z,6.22
2022-08-05T11:10:32.000Z,5.70
2022-08-05T11:13:01.367Z,6.65
2022-08-05T11:15:59.327Z,6.32
2022-08-05T11:18:32.534Z,5.90
2022-08-05T11:21:00.562Z,6.28
2022-08-05T11:24:02.894Z,6.40
2022-08-05T11:26:28.905Z,5.75
2022-08-05T11:29:13.384Z,5.95
2022-08-05T11:31:56.560Z,6.15
2022-08-05T11:34:51.547Z,6.30
2022-08-05T11:38:28.579Z,5.97
2022-08-05T11:41:12.805Z,5.85
2022-08-05T11:44:07.011Z,5.20
2022-08-05T11:47:11.726Z,6.03
2022-08-05T11:49:34.438Z,6.30
2022-08-05T11:52:11.289Z,5.80
2022-08-05T11:54:40.372Z,5.45
2022-08-05T11:57:24.311Z,6.00
2022-08-05T11:59:53.730Z,5.60
2022-08-05T12:02:31.823Z,5.47
2022-08-05T12:05:07.821Z,5.17
2022-08-05T12:08:03.196Z,5.50
2022-08-05T12:10:38.507Z,5.35
2022-08-05T12:13:15.535Z,5.00
2022-08-05T12:15:45.472Z,5.40
2022-08-05T12:18:32.816Z,5.40
2022-08-05T12:21:12.305Z,5.80
2022-08-05T12:23:43.309Z,5.65
2022-08-05T12:26:10.283Z,5.85
2022-08-05T12:28:38.208Z,5.80
2022-08-05T12:31:05.860Z,5.70
2022-08-05T12:33:36.651Z,5.40
2022-08-05T12:36:09.639Z,5.22
2022-08-05T12:38:41.327Z,4.55
2022-08-05T12:41:13.930Z,4.90
2022-08-05T12:44:02.486Z,5.53
2022-08-05T12:46:31.828Z,5.60
2022-08-05T12:49:15.601Z,5.50
2022-08-05T12:52:12.921Z,6.18
2022-08-05T12:54:41.745Z,6.07
2022-08-05T12:57:10.160Z,5.40
2022-08-05T13:00:08.368Z,5.40
2022-08-05T13:02:36.075Z,5.63
2022-08-05T13:05:06.938Z,5.65
2022-08-05T13:07:59.393Z,5.80
2022-08-05T13:10:20.774Z,5.90
2022-08-05T13:12:51.023Z,5.47
2022-08-05T13:15:41.274Z,5.70
2022-08-05T13:18:20.161Z,5.60
2022-08-05T13:20:49.311Z,5.30
2022-08-05T13:23:18.237Z,5.60
2022-08-05T13:25:58.995Z,5.20
2022-08-05T13:28:28.814Z,5.72
2022-08-05T13:30:55.891Z,5.68
2022-08-05T13:34:23.243Z,5.35
2022-08-05T13:36:11.845Z,5.20
2022-08-05T13:38:42.241Z,5.25
2022-08-05T13:41:10.182Z,5.90
2022-08-05T13:43:44.366Z,5.60
2022-08-05T13:46:13.479Z,5.30
2022-08-05T13:48:58.324Z,5.40
2022-08-05T13:51:40.020Z,5.72
2022-08-05T13:54:12.819Z,5.00
2022-08-05T13:56:45.497Z,5.47
2022-08-05T13:59:21.405Z,5.70
2022-08-05T14:01:59.203Z,5.10
2022-08-05T14:04:35.495Z,5.63
2022-08-05T14:07:25.133Z,5.43
2022-08-05T14:09:50.230Z,5.75
2022-08-05T14:12:32.260Z,5.82
2022-08-05T14:14:59.813Z,5.37
2022-08-05T14:17:28.377Z,5.70
2022-08-05T14:19:59.633Z,5.90
2022-08-05T14:22:30.293Z,5.55
2022-08-05T14:25:02.158Z,5.68
2022-08-05T14:27:33.366Z,5.47
2022-08-05T14:30:01.202Z,5.85
2022-08-05T14:32:28.498Z,5.60
2022-08-05T14:34:56.891Z,5.80
2022-08-05T14:37:45.278Z,6.07
2022-08-05T14:40:14.192Z,5.83
2022-08-05T14:42:44.044Z,6.10
2022-08-05T14:45:11.158Z,5.97
2022-08-05T14:48:03.501Z,5.95
2022-08-05T14:50:25.367Z,6.25
2022-08-05T14:52:58.309Z,5.80
2022-08-05T14:55:38.620Z,5.90
2022-08-05T14:58:11.002Z,6.65
2022-08-05T15:00:59.104Z,6.13
2022-08-05T15:03:33.104Z,7.38
2022-08-05T15:06:12.902Z,6.63
2022-08-05T15:08:59.214Z,7.15
2022-08-05T15:11:51.351Z,7.20
2022-08-05T15:14:33.511Z,7.80
2022-08-05T15:17:14.593Z,7.25
2022-08-05T15:19:52.881Z,8.20
2022-08-05T15:22:22.211Z,7.72
2022-08-05T15:24:54.826Z,7.70
2022-08-05T15:27:21.782Z,7.43
2022-08-05T15:29:52.785Z,7.60
2022-08-05T15:32:21.276Z,7.87
2022-08-05T15:34:54.622Z,7.60
2022-08-05T15:38:32.613Z,7.15
2022-08-05T15:41:00.430Z,7.38
2022-08-05T15:43:01.330Z,7.55
2022-08-05T15:45:38.131Z,6.93
2022-08-05T15:48:06.839Z,7.22
2022-08-05T15:50:33.858Z,7.25
2022-08-05T15:53:05.141Z,7.50
2022-08-05T15:56:02.396Z,8.40
2022-08-05T15:58:19.759Z,7.43
2022-08-05T16:01:04.385Z,7.32
2022-08-05T16:03:41.094Z,7.40
2022-08-05T16:06:11.428Z,7.60
2022-08-05T16:08:39.846Z,8.77
2022-08-05T16:11:08.087Z,7.83
2022-08-05T16:13:35.463Z,7.72
2022-08-05T16:16:03.724Z,7.72
2022-08-05T16:18:31.607Z,7.55
2022-08-05T16:20:59.567Z,7.53
2022-08-05T16:23:32.830Z,7.63
2022-08-05T16:26:18.346Z,8.25
2022-08-05T16:28:47.053Z,7.78
2022-08-05T16:31:13.899Z,8.15
2022-08-05T16:33:42.069Z,8.25
2022-08-05T16:36:09.889Z,8.80
2022-08-05T16:38:36.725Z,8.07
2022-08-05T16:41:21.538Z,8.57
2022-08-05T16:43:56.270Z,8.25
2022-08-05T16:46:24.787Z,8.85
2022-08-05T16:48:52.147Z,8.00
2022-08-05T16:51:19.809Z,9.00
2022-08-05T16:54:06.103Z,8.52
2022-08-05T16:56:36.272Z,8.27
2022-08-05T16:59:08.477Z,8.43
2022-08-05T17:01:53.885Z,9.47
2022-08-05T17:04:27.203Z,9.00
2022-08-05T17:06:55.810Z,9.40
2022-08-05T17:09:29.524Z,8.80
2022-08-05T17:11:59.144Z,9.93
2022-08-05T17:14:37.362Z,8.73
2022-08-05T17:17:06.194Z,9.45
2022-08-05T17:19:33.939Z,8.65
2022-08-05T17:22:01.311Z,8.90
2022-08-05T17:24:38.655Z,9.07
2022-08-05T17:27:07.538Z,9.30
2022-08-05T17:29:41.069Z,8.32
2022-08-05T17:32:16.671Z,8.90
2022-08-05T17:34:48.494Z,8.40
2022-08-05T17:37:40.149Z,8.98
2022-08-05T17:40:10.386Z,8.23
2022-08-05T17:42:41.626Z,9.10
2022-08-05T17:45:20.020Z,9.55
2022-08-05T17:47:53.509Z,10.63
2022-08-05T17:50:28.435Z,8.65
2022-08-05T17:52:58.516Z,10.53
2022-08-05T17:55:34.683Z,8.82
2022-08-05T17:58:06.997Z,10.10
2022-08-05T18:00:36.372Z,8.68
2022-08-05T18:03:08.079Z,10.27
2022-08-05T18:05:36.043Z,10.30
2022-08-05T18:08:03.580Z,9.07
2022-08-05T18:10:33.501Z,9.57
2022-08-05T18:13:00.561Z,9.40
2022-08-05T18:15:31.169Z,10.00
2022-08-05T18:18:05.648Z,10.80
2022-08-05T18:20:38.327Z,11.05
2022-08-05T18:23:09.352Z,11.00
2022-08-05T18:25:44.923Z,10.20
2022-08-05T18:28:16.007Z,10.07
2022-08-05T18:30:50.830Z,11.03
2022-08-05T18:33:23.072Z,9.73
2022-08-05T18:36:03.439Z,11.50
2022-08-05T18:38:37.046Z,10.25
2022-08-05T18:41:56.778Z,10.65
2022-08-05T18:43:52.893Z,10.77
2022-08-05T18:46:20.699Z,10.02
2022-08-05T18:48:51.819Z,11.35
2022-08-05T18:52:04.320Z,11.27
2022-08-05T18:54:10.291Z,10.70
2022-08-05T18:56:37.179Z,10.73
2022-08-05T18:59:42.101Z,10.20
2022-08-05T19:01:58.074Z,11.18
2022-08-05T19:04:26.196Z,11.65
2022-08-05T19:06:53.957Z,10.32
2022-08-05T19:09:21.757Z,11.43
2022-08-05T19:11:59.348Z,11.00
2022-08-05T19:14:37.768Z,11.00
2022-08-05T19:17:12.077Z,11.05
2022-08-05T19:19:46.608Z,10.75
2022-08-05T19:22:22.147Z,12.00
2022-08-05T19:24:56.488Z,10.75
2022-08-05T19:27:27.692Z,10.43
2022-08-05T19:29:55.132Z,10.43
2022-08-05T19:32:24.204Z,11.00
2022-08-05T19:34:55.034Z,11.37
2022-08-05T19:37:34.959Z,11.48
2022-08-05T19:40:15.031Z,12.38
2022-08-05T19:42:42.429Z,13.00
2022-08-05T19:45:33.112Z,11.70
2022-08-05T19:48:04.150Z,10.83
2022-08-05T19:50:32.493Z,11.80
2022-08-05T19:53:09.372Z,10.93
2022-08-05T19:56:15.472Z,12.18
2022-08-05T19:58:29.280Z,12.52
2022-08-05T20:00:57.176Z,12.23
2022-08-05T20:03:26.143Z,12.27
2022-08-05T20:05:53.289Z,11.73
2022-08-05T20:08:24.464Z,12.00
2022-08-05T20:10:52.537Z,11.77
2022-08-05T20:13:30.192Z,12.20
2022-08-05T20:16:07.183Z,12.70
2022-08-05T20:18:35.929Z,12.48
2022-08-05T20:21:05.061Z,12.27
2022-08-05T20:23:40.432Z,11.45
2022-08-05T20:26:21.104Z,10.70
2022-08-05T20:28:49.803Z,12.10
2022-08-05T20:31:17.746Z,11.55
2022-08-05T20:33:49.068Z,12.30
2022-08-05T20:36:17.948Z,11.80
2022-08-05T20:38:54.391Z,11.93
2022-08-05T20:41:27.095Z,12.02
2022-08-05T20:44:17.184Z,11.73
2022-08-05T20:46:45.306Z,12.38
2022-08-05T20:49:12.753Z,11.88
2022-08-05T20:51:39.628Z,10.67
2022-08-05T20:54:06.920Z,12.68
2022-08-05T20:56:42.397Z,12.02
2022-08-05T20:59:14.217Z,11.57
2022-08-05T21:01:46.044Z,11.95
2022-08-05T21:04:14.199Z,11.63
2022-08-05T21:06:45.728Z,11.60
2022-08-05T21:09:14.369Z,11.40
2022-08-05T21:12:07.741Z,11.65
2022-08-05T21:14:34.729Z,11.25
2022-08-05T21:17:02.146Z,11.50
2022-08-05T21:19:46.442Z,11.18
2022-08-05T21:22:17.620Z,11.18
2022-08-05T21:24:45.738Z,11.40
2022-08-05T21:27:16.638Z,11.73
2022-08-05T21:29:43.582Z,11.63
2022-08-05T21:32:17.199Z,11.38
2022-08-05T21:35:06.688Z,10.85
2022-08-05T21:37:33.729Z,10.90
2022-08-05T21:40:07.463Z,10.82
2022-08-05T21:42:44.562Z,10.97
2022-08-05T21:45:12.784Z,10.52
2022-08-05T21:47:56.038Z,10.40
2022-08-05T21:50:27.784Z,10.95
2022-08-05T21:52:58.864Z,10.88
2022-08-05T21:56:00.927Z,11.33
2022-08-05T21:58:19.389Z,11.38
2022-08-05T22:00:51.251Z,10.55
2022-08-05T22:03:48.764Z,11.40
2022-08-05T22:06:05.709Z,10.52
2022-08-05T22:08:32.987Z,10.57
2022-08-05T22:10:59.954Z,11.27
2022-08-05T22:14:18.276Z,10.52
2022-08-05T22:16:39.579Z,10.63
2022-08-05T22:19:00.704Z,10.73
2022-08-05T22:21:27.599Z,10.73
2022-08-05T22:24:02.701Z,10.45
2022-08-05T22:26:30.719Z,10.68
2022-08-05T22:28:57.660Z,9.73
2022-08-05T22:31:29.995Z,9.00
2022-08-05T22:34:01.627Z,9.57
2022-08-05T22:36:29.377Z,9.70
2022-08-05T22:38:56.777Z,10.05
2022-08-05T22:42:05.577Z,9.02
2022-08-05T22:44:12.032Z,10.00
2022-08-05T22:46:40.742Z,10.20
2022-08-05T22:50:18.204Z,9.32
2022-08-05T22:52:05.862Z,9.82
2022-08-05T22:54:35.880Z,8.80
2022-08-05T22:57:06.491Z,9.57
2022-08-05T22:59:45.246Z,8.50
2022-08-05T23:02:17.264Z,9.07
2022-08-05T23:04:51.610Z,10.18
2022-08-05T23:07:21.906Z,9.50
2022-08-05T23:09:57.333Z,9.75
2022-08-05T23:12:28.903Z,8.20
2022-08-05T23:14:56.096Z,8.70
2022-08-05T23:17:24.358Z,8.90
2022-08-05T23:20:01.072Z,9.30
2022-08-05T23:22:29.762Z,8.88
2022-08-05T23:24:57.961Z,8.57
2022-08-05T23:27:28.973Z,8.02
2022-08-05T23:29:58.351Z,8.43
2022-08-05T23:32:27.095Z,7.82
2022-08-05T23:34:54.257Z,7.63
2022-08-05T23:37:21.141Z,8.07
2022-08-05T23:39:54.530Z,7.60
2022-08-05T23:42:29.173Z,7.68
2022-08-05T23:44:57.318Z,7.45
2022-08-05T23:47:25.076Z,7.25
2022-08-05T23:49:55.576Z,7.63
2022-08-05T23:52:25.370Z,8.05
2022-08-05T23:55:05.233Z,7.53
2022-08-05T23:57:34.732Z,7.88
